Terminal Aerodrome Forecast
Issued by NWS Charleston, WV

Current Version | Previous Version | Graphics & Text | Print | Product List | Glossary On
Versions: 1 2 3 4 5 6 7 8 9 10 11 12 13 14 15 16 17 18 19 20 21 22 23 24
000
FTUS41 KRLX 261134
TAFBKW
TAF
KBKW 261134Z 2612/2712 16004KT P6SM OVC050
     FM261300 19004KT P6SM SHRA OVC040
     FM261700 20005KT P6SM VCTS BKN050CB
     FM270800 19004KT P6SM SHRA VCTS BKN035CB
     FM270900 19004KT 5SM SHRA BR VCTS OVC025CB=

USA.gov is the U.S. government's official web portal to all federal, state and local government web resources and services.